Time;durP1;ratioP1;P1;durP2;ratioP2;P2;SDS_P1;SDS_P2;PMS_P1;PMS_P2;Temp;Humidity;BMP_temperature;BMP_pressure;BME280_temperature;BME280_humidity;BME280_pressure;Samples;Min_cycle;Max_cycle;Signal;HPM_P1;HPM_P2
2023/12/17 00:00:54;;;;;;;43.92;28.15;;;;;;;8.30;100.00;103786.19;6154663;23;20012;-74
2023/12/17 00:03:19;;;;;;;43.83;27.58;;;;;;;8.36;100.00;103800.81;6155044;23;20009;-76
2023/12/17 00:05:45;;;;;;;44.47;29.15;;;;;;;8.36;100.00;103795.66;6155164;23;20016;-75
2023/12/17 00:08:10;;;;;;;42.17;27.60;;;;;;;8.25;100.00;103784.50;6154829;23;20006;-79
2023/12/17 00:10:35;;;;;;;44.72;28.13;;;;;;;8.35;100.00;103788.75;6155326;23;20009;-76
2023/12/17 00:13:00;;;;;;;42.30;27.88;;;;;;;8.36;100.00;103782.78;6156936;23;20297;-78
2023/12/17 00:15:26;;;;;;;43.85;28.17;;;;;;;8.37;100.00;103783.63;6156909;23;20005;-78
2023/12/17 00:17:51;;;;;;;44.97;28.52;;;;;;;8.18;100.00;103746.81;6156901;23;20072;-78
2023/12/17 00:20:17;;;;;;;45.17;29.02;;;;;;;8.37;100.00;103774.19;6156775;23;20006;-77
2023/12/17 00:22:42;;;;;;;40.63;27.38;;;;;;;8.32;100.00;103770.72;6156860;23;20036;-79
2023/12/17 00:25:08;;;;;;;45.10;28.70;;;;;;;8.36;100.00;103762.19;6156674;23;19998;-79
2023/12/17 00:27:33;;;;;;;46.78;27.17;;;;;;;8.36;100.00;103758.72;6156661;23;20002;-80
2023/12/17 00:29:58;;;;;;;45.63;27.55;;;;;;;8.24;100.00;103733.88;6156821;23;20446;-79
2023/12/17 00:32:23;;;;;;;42.97;26.02;;;;;;;8.24;100.00;103733.88;6156306;23;20048;-80
2023/12/17 00:34:49;;;;;;;40.53;26.30;;;;;;;8.37;100.00;103755.31;6156388;23;20010;-80
2023/12/17 00:37:14;;;;;;;41.22;26.23;;;;;;;8.20;100.00;103743.34;6156819;23;20001;-77
2023/12/17 00:39:40;;;;;;;40.50;26.42;;;;;;;8.22;100.00;103745.91;6156167;23;20014;-78
2023/12/17 00:42:05;;;;;;;40.47;26.52;;;;;;;8.25;100.00;103751.88;6156283;23;20017;-79
2023/12/17 00:44:30;;;;;;;41.38;25.63;;;;;;;8.38;100.00;103782.75;6156726;23;20007;-79
2023/12/17 00:46:56;;;;;;;40.78;24.92;;;;;;;8.39;100.00;103771.59;6156742;23;20002;-79
2023/12/17 00:49:21;;;;;;;39.28;23.75;;;;;;;8.37;100.00;103763.88;6156384;23;20036;-79
2023/12/17 00:51:46;;;;;;;36.40;22.38;;;;;;;8.38;100.00;103757.88;6156490;23;20024;-78
2023/12/17 00:54:12;;;;;;;38.13;24.00;;;;;;;8.38;100.00;103747.56;6156761;23;20443;-76
2023/12/17 00:56:37;;;;;;;36.47;23.05;;;;;;;8.37;100.00;103743.28;6156129;23;20006;-76
2023/12/17 00:59:02;;;;;;;37.03;23.88;;;;;;;8.37;100.00;103743.28;6156288;23;20005;-76
2023/12/17 01:01:28;;;;;;;39.40;26.65;;;;;;;8.35;100.00;103737.25;6156150;23;20012;-77
2023/12/17 01:03:53;;;;;;;39.88;24.40;;;;;;;8.23;100.00;103716.72;6156237;23;20016;-75
2023/12/17 01:06:18;;;;;;;43.10;26.27;;;;;;;8.34;100.00;103735.53;6156416;23;20040;-76
2023/12/17 01:08:44;;;;;;;42.25;26.27;;;;;;;8.33;100.00;103729.53;6156317;23;20085;-75
2023/12/17 01:11:09;;;;;;;41.53;25.65;;;;;;;8.35;100.00;103729.53;6156286;23;20001;-74
2023/12/17 01:13:34;;;;;;;44.30;25.65;;;;;;;8.33;100.00;103729.53;6156057;23;20009;-74
2023/12/17 01:16:00;;;;;;;41.28;26.67;;;;;;;8.33;100.00;103734.69;6156248;23;20438;-76
2023/12/17 01:18:25;;;;;;;39.38;25.48;;;;;;;8.36;100.00;103741.59;6156021;23;20012;-75
2023/12/17 01:20:50;;;;;;;41.95;26.30;;;;;;;8.35;100.00;103737.25;6156337;23;20001;-75
2023/12/17 01:23:16;;;;;;;39.72;25.42;;;;;;;8.38;100.00;103749.28;6155953;23;20060;-76
2023/12/17 01:25:41;;;;;;;42.42;26.27;;;;;;;8.37;100.00;103750.16;6155945;23;20010;-75
2023/12/17 01:28:06;;;;;;;38.70;23.98;;;;;;;8.26;100.00;103734.75;6156094;23;20081;-75
2023/12/17 01:30:32;;;;;;;36.10;22.65;;;;;;;8.33;100.00;103747.53;6156118;23;20081;-75
2023/12/17 01:32:57;;;;;;;33.00;21.35;;;;;;;8.26;100.00;103735.59;6155846;23;20420;-75
2023/12/17 01:35:22;;;;;;;33.05;21.88;;;;;;;8.25;100.00;103736.44;6155855;23;20016;-75
2023/12/17 01:37:48;;;;;;;35.53;23.67;;;;;;;8.38;100.00;103757.00;6156156;23;20013;-75
2023/12/17 01:40:13;;;;;;;36.60;23.67;;;;;;;8.40;100.00;103760.44;6155571;23;20017;-75
2023/12/17 01:42:38;;;;;;;29.33;18.92;;;;;;;8.40;100.00;103758.69;6155860;23;20080;-81
2023/12/17 01:45:04;;;;;;;29.58;19.42;;;;;;;8.41;100.00;103762.97;6156022;23;20029;-76
2023/12/17 01:47:29;;;;;;;31.77;19.00;;;;;;;8.27;100.00;103745.03;6156291;23;20305;-77
2023/12/17 01:49:55;;;;;;;28.55;19.45;;;;;;;8.41;100.00;103762.97;6155682;23;20025;-77
2023/12/17 01:52:20;;;;;;;34.22;20.30;;;;;;;8.29;100.00;103740.72;6155510;23;20076;-77
2023/12/17 01:54:46;;;;;;;31.95;18.95;;;;;;;8.24;100.00;103733.88;6156066;23;20462;-78
2023/12/17 01:57:12;;;;;;;32.72;20.35;;;;;;;8.42;100.00;103766.41;6155626;23;20044;-78
2023/12/17 01:59:38;;;;;;;33.42;22.15;;;;;;;8.26;100.00;103745.06;6155507;23;20005;-78
2023/12/17 02:02:04;;;;;;;34.83;22.25;;;;;;;8.33;100.00;103746.69;6155559;23;20071;-77
2023/12/17 02:04:30;;;;;;;35.47;22.38;;;;;;;8.37;100.00;103769.03;6155280;23;20436;-77
2023/12/17 02:06:55;;;;;;;34.65;22.50;;;;;;;8.39;100.00;103769.88;6155476;23;20005;-78
2023/12/17 02:09:20;;;;;;;35.30;21.92;;;;;;;8.38;100.00;103768.16;6155640;23;20048;-77
2023/12/17 02:11:46;;;;;;;33.83;22.13;;;;;;;8.38;100.00;103768.16;6155807;23;20407;-78
2023/12/17 02:14:11;;;;;;;36.63;21.92;;;;;;;8.39;100.00;103775.03;6155465;23;20028;-76
2023/12/17 02:16:36;;;;;;;34.78;21.05;;;;;;;8.30;100.00;103760.44;6155501;23;20500;-79
2023/12/17 02:19:02;;;;;;;36.20;21.90;;;;;;;8.32;100.00;103765.59;6155443;23;20090;-78
2023/12/17 02:21:27;;;;;;;36.67;20.40;;;;;;;8.30;100.00;103755.31;6155180;23;20001;-78
2023/12/17 02:23:54;;;;;;;30.48;18.77;;;;;;;8.35;100.00;103760.44;6155236;23;20001;-78
2023/12/17 02:26:19;;;;;;;31.73;19.38;;;;;;;8.33;100.00;103764.72;6155765;23;20020;-78
2023/12/17 02:28:47;;;;;;;27.73;18.23;;;;;;;8.24;100.00;103744.19;6155472;23;20408;-78
2023/12/17 02:31:12;;;;;;;27.77;18.15;;;;;;;8.35;100.00;103765.59;6155367;23;20032;-79
2023/12/17 02:33:37;;;;;;;25.73;15.23;;;;;;;8.33;100.00;103760.41;6154768;23;20005;-79
2023/12/17 02:36:03;;;;;;;20.92;13.27;;;;;;;8.33;100.00;103767.28;6155051;23;20420;-77
2023/12/17 02:38:28;;;;;;;19.40;12.05;;;;;;;8.34;100.00;103767.31;6155036;23;20032;-78
2023/12/17 02:40:54;;;;;;;20.42;11.05;;;;;;;8.34;100.00;103766.44;6155314;23;20009;-78
2023/12/17 02:43:19;;;;;;;18.85;11.00;;;;;;;8.34;100.00;103757.00;6155530;23;20037;-78
2023/12/17 02:45:44;;;;;;;18.17;9.95;;;;;;;8.33;100.00;103750.13;6155306;23;20399;-78
2023/12/17 02:48:11;;;;;;;18.35;10.75;;;;;;;8.38;100.00;103764.75;6155432;23;20021;-79
2023/12/17 02:50:36;;;;;;;18.42;11.15;;;;;;;8.38;100.00;103762.16;6155008;23;20496;-78
2023/12/17 02:53:01;;;;;;;17.73;10.68;;;;;;;8.34;100.00;103759.59;6155070;23;20005;-78
2023/12/17 02:55:26;;;;;;;18.17;10.98;;;;;;;8.35;100.00;103755.28;6155412;23;20006;-75
2023/12/17 02:57:52;;;;;;;21.38;10.02;;;;;;;8.37;100.00;103761.31;6155713;23;20359;-78
2023/12/17 03:00:17;;;;;;;19.05;10.90;;;;;;;8.37;100.00;103757.88;6155365;23;20497;-74
2023/12/17 03:02:42;;;;;;;20.00;12.10;;;;;;;8.28;100.00;103744.16;6155030;23;20025;-74
2023/12/17 03:05:08;;;;;;;18.00;11.30;;;;;;;8.37;100.00;103756.16;6154936;23;20014;-74
2023/12/17 03:07:33;;;;;;;21.95;12.55;;;;;;;8.31;100.00;103744.13;6155128;23;20054;-74
2023/12/17 03:09:59;;;;;;;23.08;13.07;;;;;;;8.20;100.00;103719.34;6155422;23;20013;-75
2023/12/17 03:12:24;;;;;;;21.67;12.30;;;;;;;8.33;100.00;103741.53;6155434;23;20324;-74
2023/12/17 03:14:49;;;;;;;24.85;13.77;;;;;;;8.35;100.00;103742.41;6155354;23;20019;-75
2023/12/17 03:17:15;;;;;;;27.55;15.27;;;;;;;8.32;100.00;103734.69;6153949;23;20005;-74
2023/12/17 03:19:40;;;;;;;24.70;14.15;;;;;;;8.34;100.00;103731.25;6155323;23;20010;-75
2023/12/17 03:22:05;;;;;;;27.45;15.27;;;;;;;8.36;100.00;103738.13;6155202;23;20415;-77
2023/12/17 03:24:31;;;;;;;29.50;17.35;;;;;;;8.37;100.00;103730.41;6155134;23;20434;-77
2023/12/17 03:26:56;;;;;;;32.45;19.20;;;;;;;8.24;100.00;103706.41;6155090;23;20420;-76
2023/12/17 03:29:21;;;;;;;37.20;20.45;;;;;;;8.38;100.00;103726.97;6155120;23;19998;-76
2023/12/17 03:31:46;;;;;;;36.70;22.83;;;;;;;8.31;100.00;103718.38;6155181;23;20056;-76
2023/12/17 03:34:12;;;;;;;40.92;24.00;;;;;;;8.39;100.00;103730.41;6154877;23;20009;-78
2023/12/17 03:36:37;;;;;;;38.40;22.77;;;;;;;8.37;100.00;103732.97;6154962;23;20178;-77
2023/12/17 03:39:03;;;;;;;38.08;23.63;;;;;;;8.43;100.00;103724.34;6155058;23;20057;-78
2023/12/17 03:41:28;;;;;;;38.40;23.15;;;;;;;8.37;100.00;103717.53;6154802;23;20084;-76
2023/12/17 03:43:56;;;;;;;42.05;24.27;;;;;;;8.31;100.00;103707.25;6154907;23;20005;-76
2023/12/17 03:46:23;;;;;;;40.22;23.95;;;;;;;8.14;100.00;103673.88;6156589;23;20006;-78
2023/12/17 03:48:49;;;;;;;36.97;23.10;;;;;;;8.42;100.00;103720.06;6156783;23;20001;-78
2023/12/17 03:51:15;;;;;;;40.20;23.30;;;;;;;8.40;100.00;103714.94;6157051;23;20006;-78
2023/12/17 03:53:40;;;;;;;38.70;24.02;;;;;;;8.41;100.00;103708.91;6157120;23;20010;-78
2023/12/17 03:56:10;;;;;;;42.63;24.00;;;;;;;8.25;100.00;103686.69;6156784;23;20012;-76
2023/12/17 03:58:36;;;;;;;40.10;24.95;;;;;;;8.33;100.00;103702.91;6157000;23;20006;-78
2023/12/17 04:01:03;;;;;;;39.08;24.25;;;;;;;8.39;100.00;103707.22;6156831;23;20012;-78
2023/12/17 04:03:28;;;;;;;41.58;23.45;;;;;;;8.31;100.00;103697.78;6156647;23;20447;-78
2023/12/17 04:05:53;;;;;;;39.85;23.73;;;;;;;8.31;100.00;103690.06;6156605;23;20001;-77
2023/12/17 04:08:19;;;;;;;38.83;24.38;;;;;;;8.37;100.00;103704.66;6157096;23;20001;-76
2023/12/17 04:10:44;;;;;;;37.28;22.67;;;;;;;8.35;100.00;103698.66;6156690;23;20005;-77
2023/12/17 04:13:09;;;;;;;36.45;22.38;;;;;;;8.34;100.00;103692.63;6156377;23;20013;-77
2023/12/17 04:15:35;;;;;;;39.13;23.48;;;;;;;8.34;100.00;103695.22;6130515;23;20439;-78
2023/12/17 04:18:00;;;;;;;35.90;22.30;;;;;;;8.10;100.00;103654.19;6156705;23;20009;-78
2023/12/17 04:20:25;;;;;;;34.47;21.52;;;;;;;8.34;100.00;103695.22;6130230;23;20335;-77
2023/12/17 04:22:50;;;;;;;35.80;21.10;;;;;;;8.16;100.00;103668.72;6157115;23;20006;-76
2023/12/17 04:25:16;;;;;;;33.72;21.23;;;;;;;8.29;100.00;103686.66;6156936;23;20002;-78
2023/12/17 04:27:41;;;;;;;32.20;20.13;;;;;;;8.32;100.00;103685.78;6156296;23;20010;-75
2023/12/17 04:30:07;;;;;;;31.52;18.75;;;;;;;8.30;100.00;103680.63;6129960;23;20375;-75
2023/12/17 04:32:32;;;;;;;30.25;17.98;;;;;;;8.29;100.00;103676.34;6156388;23;20032;-76
2023/12/17 04:34:57;;;;;;;27.10;17.45;;;;;;;8.15;100.00;103657.56;6129718;23;20045;-76
2023/12/17 04:37:23;;;;;;;31.50;18.90;;;;;;;8.13;100.00;103648.16;6156359;23;20008;-75
2023/12/17 04:39:49;;;;;;;29.60;17.35;;;;;;;8.30;100.00;103683.22;6124773;23;20013;-75
2023/12/17 04:42:15;;;;;;;26.08;17.33;;;;;;;8.13;100.00;103654.16;6126525;23;20057;-74
2023/12/17 04:44:40;;;;;;;24.95;16.00;;;;;;;8.21;100.00;103665.25;6125292;23;20010;-75
2023/12/17 04:47:06;;;;;;;24.63;16.25;;;;;;;8.15;100.00;103662.72;6125418;23;20013;-75
2023/12/17 04:49:31;;;;;;;25.60;16.63;;;;;;;8.29;100.00;103686.66;6126807;23;20328;-75
2023/12/17 04:51:56;;;;;;;23.92;15.38;;;;;;;8.24;100.00;103682.41;6126755;23;20421;-75
2023/12/17 04:54:22;;;;;;;26.85;16.13;;;;;;;8.18;100.00;103664.44;6127095;23;20014;-75
2023/12/17 04:56:48;;;;;;;23.48;15.85;;;;;;;8.19;100.00;103668.72;6126284;23;20037;-75
2023/12/17 04:59:14;;;;;;;25.23;15.13;;;;;;;8.24;100.00;103678.09;6126716;23;20012;-73
2023/12/17 05:01:39;;;;;;;24.67;14.82;;;;;;;7.42;100.00;103548.34;6126667;23;20026;-74
2023/12/17 05:04:04;;;;;;;24.67;15.85;;;;;;;8.23;100.00;103684.13;6126747;23;20060;-74
2023/12/17 05:06:29;;;;;;;27.80;16.30;;;;;;;8.21;100.00;103672.97;6126494;23;20060;-75
2023/12/17 05:08:55;;;;;;;27.55;17.13;;;;;;;8.20;100.00;103678.16;6126731;23;20081;-74
2023/12/17 05:11:20;;;;;;;27.42;16.85;;;;;;;8.19;100.00;103679.00;6127041;23;20006;-74
2023/12/17 05:13:45;;;;;;;29.50;18.52;;;;;;;8.17;100.00;103681.59;6126679;23;20012;-74
2023/12/17 05:16:11;;;;;;;29.08;16.90;;;;;;;8.17;100.00;103679.03;6126589;23;20010;-73
2023/12/17 05:18:36;;;;;;;30.15;18.92;;;;;;;8.17;100.00;103678.19;6126551;23;20090;-74
2023/12/17 05:21:01;;;;;;;28.90;17.90;;;;;;;8.15;100.00;103682.47;6126519;23;20002;-73
2023/12/17 05:23:26;;;;;;;28.13;17.05;;;;;;;8.04;100.00;103669.66;6126572;23;20005;-74
2023/12/17 05:25:52;;;;;;;31.05;17.35;;;;;;;8.12;100.00;103682.50;6126594;23;20052;-73
2023/12/17 05:28:17;;;;;;;30.75;18.70;;;;;;;8.07;100.00;103679.97;6126628;23;20002;-74
2023/12/17 05:30:42;;;;;;;31.30;18.33;;;;;;;8.10;100.00;103689.38;6126424;23;19998;-75
2023/12/17 05:33:08;;;;;;;30.80;19.05;;;;;;;8.09;100.00;103680.81;6126317;23;20001;-77
2023/12/17 05:35:33;;;;;;;29.38;17.77;;;;;;;8.09;100.00;103680.81;6126387;23;20056;-75
2023/12/17 05:37:58;;;;;;;27.23;17.25;;;;;;;7.87;100.00;103641.50;6126460;23;20447;-75
2023/12/17 05:40:24;;;;;;;28.48;17.20;;;;;;;8.03;100.00;103673.97;6126286;23;20001;-75
2023/12/17 05:42:49;;;;;;;29.38;16.92;;;;;;;7.91;100.00;103656.03;6126628;23;20051;-75
2023/12/17 05:45:14;;;;;;;26.90;17.05;;;;;;;8.04;100.00;103677.38;6126314;23;20014;-76
2023/12/17 05:47:40;;;;;;;28.50;17.13;;;;;;;7.91;100.00;103652.63;6126240;23;20372;-74
2023/12/17 05:50:07;;;;;;;32.45;18.50;;;;;;;8.01;100.00;103669.69;6126400;23;19998;-73
2023/12/17 05:52:33;;;;;;;31.60;18.73;;;;;;;7.84;100.00;103646.66;6126101;23;20440;-74
2023/12/17 05:54:58;;;;;;;35.33;19.95;;;;;;;7.99;100.00;103671.44;6126278;23;20013;-75
2023/12/17 05:57:23;;;;;;;30.95;19.40;;;;;;;7.95;100.00;103659.44;6126424;23;20036;-78
2023/12/17 05:59:49;;;;;;;33.70;18.40;;;;;;;8.00;100.00;103662.84;6126701;23;20393;-75
2023/12/17 06:02:14;;;;;;;34.40;19.90;;;;;;;7.97;100.00;103660.31;6125968;23;20436;-75
2023/12/17 06:04:39;;;;;;;32.50;18.55;;;;;;;7.94;100.00;103650.88;6126125;23;20006;-74
2023/12/17 06:07:05;;;;;;;35.35;18.88;;;;;;;7.92;100.00;103651.75;6125693;23;20002;-77
2023/12/17 06:09:31;;;;;;;32.03;17.98;;;;;;;8.01;100.00;103664.56;6126258;23;20002;-76
2023/12/17 06:11:57;;;;;;;32.15;18.65;;;;;;;7.88;100.00;103642.34;6126439;23;20010;-75
2023/12/17 06:14:23;;;;;;;30.45;16.92;;;;;;;7.82;100.00;103640.66;6126366;23;20041;-75
2023/12/17 06:16:49;;;;;;;32.63;17.85;;;;;;;8.02;100.00;103671.41;6126425;23;20002;-77
2023/12/17 06:19:14;;;;;;;29.40;17.35;;;;;;;8.01;100.00;103669.69;6126245;23;20024;-75
2023/12/17 06:21:40;;;;;;;30.75;17.48;;;;;;;8.00;100.00;103673.13;6126099;23;20337;-76
2023/12/17 06:24:05;;;;;;;28.02;16.13;;;;;;;7.87;100.00;103650.94;6125931;23;20002;-77
2023/12/17 06:26:31;;;;;;;26.23;16.80;;;;;;;7.83;100.00;103649.22;6126100;23;20073;-76
2023/12/17 06:28:59;;;;;;;27.40;17.60;;;;;;;7.97;100.00;103671.44;6125902;23;20009;-76
2023/12/17 06:31:24;;;;;;;26.58;17.15;;;;;;;7.94;100.00;103674.03;6125996;23;20085;-76
2023/12/17 06:33:53;;;;;;;27.13;16.70;;;;;;;7.94;100.00;103671.44;6125785;23;20045;-77
2023/12/17 06:36:18;;;;;;;27.80;16.90;;;;;;;7.91;100.00;103676.63;6125827;23;20037;-77
2023/12/17 06:38:44;;;;;;;30.17;17.30;;;;;;;7.89;100.00;103678.34;6125918;23;20013;-75
2023/12/17 06:41:09;;;;;;;28.00;16.88;;;;;;;7.89;100.00;103670.63;6125934;23;20059;-77
2023/12/17 06:43:36;;;;;;;26.52;16.67;;;;;;;7.90;100.00;103671.50;6124598;23;20005;-76
2023/12/17 06:46:02;;;;;;;27.45;16.42;;;;;;;7.88;100.00;103681.78;6124441;23;20002;-76
2023/12/17 06:48:27;;;;;;;26.77;16.77;;;;;;;7.89;100.00;103669.78;6125637;23;20006;-76
2023/12/17 06:50:52;;;;;;;26.88;16.77;;;;;;;7.89;100.00;103670.63;6125840;23;20037;-75
2023/12/17 06:53:18;;;;;;;28.83;17.08;;;;;;;7.86;100.00;103668.06;6125721;23;20008;-75
2023/12/17 06:55:43;;;;;;;29.95;17.63;;;;;;;7.81;100.00;103667.25;6126071;23;20013;-74
2023/12/17 06:58:09;;;;;;;27.35;15.60;;;;;;;7.85;100.00;103670.66;6126255;23;20002;-74
2023/12/17 07:00:34;;;;;;;25.23;15.55;;;;;;;7.84;100.00;103666.38;6125804;23;20417;-74
2023/12/17 07:03:00;;;;;;;25.13;14.30;;;;;;;7.66;100.00;103652.75;6125373;23;20081;-76
2023/12/17 07:05:25;;;;;;;23.52;14.35;;;;;;;7.82;100.00;103679.25;6125678;23;20076;-74
2023/12/17 07:07:51;;;;;;;22.20;14.35;;;;;;;7.50;100.00;103619.44;6123995;23;20010;-76
2023/12/17 07:10:16;;;;;;;20.80;13.40;;;;;;;7.82;100.00;103670.69;6123662;23;20424;-77
2023/12/17 07:12:42;;;;;;;22.05;13.63;;;;;;;7.78;100.00;103669.84;6125781;23;20313;-74
2023/12/17 07:15:08;;;;;;;21.85;13.45;;;;;;;7.76;100.00;103658.69;6121861;23;20011;-75
2023/12/17 07:17:33;;;;;;;19.15;11.98;;;;;;;7.67;100.00;103658.75;6126181;23;20006;-76
2023/12/17 07:19:58;;;;;;;19.15;12.75;;;;;;;7.62;100.00;103645.94;6126253;23;20013;-76
2023/12/17 07:22:24;;;;;;;20.08;13.23;;;;;;;7.79;100.00;103689.56;6128827;23;20006;-74
2023/12/17 07:24:50;;;;;;;19.70;12.65;;;;;;;7.83;100.00;103692.97;6128807;23;20010;-78
2023/12/17 07:27:15;;;;;;;22.02;12.68;;;;;;;7.82;100.00;103698.97;6128693;23;20002;-75
2023/12/17 07:29:41;;;;;;;21.40;13.68;;;;;;;7.81;100.00;103695.56;6128536;23;20052;-76
2023/12/17 07:32:06;;;;;;;20.08;12.80;;;;;;;7.83;100.00;103692.97;6128995;23;20002;-75
2023/12/17 07:34:32;;;;;;;19.20;12.35;;;;;;;7.81;100.00;103695.56;6128843;23;20033;-77
2023/12/17 07:36:57;;;;;;;19.55;12.63;;;;;;;7.73;100.00;103682.72;6128552;23;20092;-77
2023/12/17 07:39:23;;;;;;;19.70;12.65;;;;;;;7.81;100.00;103689.56;6126739;23;20393;-75
2023/12/17 07:41:48;;;;;;;19.60;12.90;;;;;;;7.67;100.00;103666.47;6128927;23;20002;-78
2023/12/17 07:44:13;;;;;;;18.20;12.55;;;;;;;7.75;100.00;103687.84;6128638;23;20009;-75
2023/12/17 07:46:39;;;;;;;18.45;12.82;;;;;;;7.81;100.00;103699.84;6128823;23;20010;-79
2023/12/17 07:49:04;;;;;;;19.08;11.95;;;;;;;7.76;100.00;103702.41;6128917;23;20036;-77
2023/12/17 07:51:30;;;;;;;18.95;13.25;;;;;;;7.65;100.00;103681.91;6128839;23;20049;-76
2023/12/17 07:53:55;;;;;;;19.58;13.68;;;;;;;7.66;100.00;103693.91;6128817;23;20081;-78
2023/12/17 07:56:21;;;;;;;19.42;12.85;;;;;;;7.73;100.00;103702.44;6126877;23;20010;-79
2023/12/17 07:58:46;;;;;;;20.02;13.13;;;;;;;7.48;100.00;103658.88;6128848;23;20404;-76
2023/12/17 08:01:11;;;;;;;21.17;13.55;;;;;;;7.62;100.00;103687.06;6128713;23;20006;-77
2023/12/17 08:03:37;;;;;;;19.35;12.55;;;;;;;7.73;100.00;103707.59;6128447;23;20092;-77
2023/12/17 08:06:02;;;;;;;18.77;12.65;;;;;;;7.73;100.00;103705.88;6128890;23;20320;-76
2023/12/17 08:08:31;;;;;;;18.85;12.40;;;;;;;7.63;100.00;103680.22;6128972;23;20005;-78
2023/12/17 08:10:56;;;;;;;19.88;13.43;;;;;;;7.74;100.00;103699.00;6128967;23;20025;-78
2023/12/17 08:13:21;;;;;;;19.73;12.50;;;;;;;7.73;100.00;103694.72;6128508;23;20029;-78
2023/12/17 08:15:47;;;;;;;20.40;12.82;;;;;;;7.73;100.00;103697.31;6128581;23;20086;-77
2023/12/17 08:18:13;;;;;;;21.02;12.98;;;;;;;7.78;100.00;103702.44;6127398;23;20002;-76
2023/12/17 08:20:38;;;;;;;17.48;11.70;;;;;;;7.82;100.00;103701.56;6129835;23;20387;-77
2023/12/17 08:23:04;;;;;;;19.55;12.95;;;;;;;7.80;100.00;103693.84;6128733;23;20030;-80
2023/12/17 08:25:30;;;;;;;22.77;12.63;;;;;;;7.85;100.00;103704.09;6126728;23;20006;-76
2023/12/17 08:27:56;;;;;;;17.63;12.00;;;;;;;7.81;100.00;103703.28;6128402;23;20010;-75
2023/12/17 08:30:21;;;;;;;18.58;11.63;;;;;;;7.74;100.00;103694.72;6128439;23;20006;-75
2023/12/17 08:32:46;;;;;;;18.30;11.40;;;;;;;7.79;100.00;103711.88;6126516;23;20009;-78
2023/12/17 08:35:12;;;;;;;17.67;11.98;;;;;;;7.75;100.00;103705.88;6126820;23;20002;-77
2023/12/17 08:37:37;;;;;;;19.00;11.93;;;;;;;7.76;100.00;103707.56;6126459;23;20050;-75
2023/12/17 08:40:03;;;;;;;16.55;11.15;;;;;;;7.54;100.00;103675.09;6126978;23;20010;-74
2023/12/17 08:42:29;;;;;;;16.88;11.02;;;;;;;7.73;100.00;103716.16;6126691;23;20012;-75
2023/12/17 08:44:54;;;;;;;16.52;9.68;;;;;;;7.63;100.00;103698.22;6127087;23;20014;-75
2023/12/17 08:47:20;;;;;;;15.40;10.13;;;;;;;7.71;100.00;103707.59;6127114;23;20034;-74
2023/12/17 08:49:45;;;;;;;14.43;9.82;;;;;;;7.61;100.00;103699.94;6126952;23;20127;-75
2023/12/17 08:52:10;;;;;;;16.75;10.93;;;;;;;7.70;100.00;103710.19;6126608;23;20312;-76
2023/12/17 08:54:36;;;;;;;14.13;10.00;;;;;;;7.66;100.00;103709.34;6126431;23;20013;-75
2023/12/17 08:57:01;;;;;;;13.15;8.88;;;;;;;7.59;100.00;103717.97;6126609;23;20013;-75
2023/12/17 08:59:26;;;;;;;12.82;8.63;;;;;;;7.45;100.00;103694.84;6126677;23;20029;-73
2023/12/17 09:01:52;;;;;;;12.80;8.98;;;;;;;7.54;100.00;103714.53;6126793;23;20013;-74
2023/12/17 09:04:17;;;;;;;13.52;9.07;;;;;;;7.54;100.00;103711.97;6126733;23;20002;-74
2023/12/17 09:06:47;;;;;;;15.15;8.85;;;;;;;7.42;100.00;103700.03;6126647;23;20035;-74
2023/12/17 09:09:13;;;;;;;13.32;9.82;;;;;;;7.50;100.00;103710.28;6147908;23;20010;-73
2023/12/17 09:11:39;;;;;;;14.60;10.55;;;;;;;7.39;100.00;103688.91;6126637;23;20424;-73
2023/12/17 09:14:07;;;;;;;14.93;10.02;;;;;;;7.37;100.00;103676.03;6126549;23;20036;-73
2023/12/17 09:16:32;;;;;;;15.13;10.88;;;;;;;7.55;100.00;103700.81;6126677;23;20009;-75
2023/12/17 09:18:57;;;;;;;17.50;11.15;;;;;;;7.43;100.00;103690.59;6124711;23;20014;-77
2023/12/17 09:21:24;;;;;;;16.27;11.75;;;;;;;7.50;100.00;103705.13;6126647;23;20495;-74
2023/12/17 09:23:49;;;;;;;17.77;12.50;;;;;;;7.33;100.00;103687.19;6126369;23;20017;-75
2023/12/17 09:26:14;;;;;;;18.50;13.45;;;;;;;7.41;100.00;103705.16;6126567;23;20009;-74
2023/12/17 09:28:41;;;;;;;17.80;12.43;;;;;;;7.35;100.00;103713.75;6126562;23;20140;-74
2023/12/17 09:31:08;;;;;;;19.02;12.75;;;;;;;7.30;100.00;103712.06;6124189;23;20077;-74
2023/12/17 09:33:35;;;;;;;17.45;12.05;;;;;;;7.25;100.00;103704.34;6126633;23;20034;-76
2023/12/17 09:36:00;;;;;;;16.45;12.23;;;;;;;7.25;100.00;103698.34;6126237;23;20006;-77
2023/12/17 09:38:26;;;;;;;18.58;12.20;;;;;;;7.33;100.00;103710.34;6126198;23;20093;-78
2023/12/17 09:40:52;;;;;;;19.33;13.15;;;;;;;7.15;100.00;103682.13;6126336;23;20057;-74
2023/12/17 09:43:20;;;;;;;18.38;12.00;;;;;;;7.29;100.00;103715.50;6126533;23;20014;-79
2023/12/17 09:45:45;;;;;;;20.60;12.70;;;;;;;7.30;100.00;103719.78;6126416;23;20010;-77
2023/12/17 09:48:11;;;;;;;19.23;12.93;;;;;;;7.13;100.00;103699.25;6126264;23;20121;-78
2023/12/17 09:50:36;;;;;;;21.65;13.63;;;;;;;7.16;100.00;103705.22;6125934;23;20006;-78
2023/12/17 09:53:01;;;;;;;21.67;14.23;;;;;;;7.27;100.00;103727.47;6125951;23;20002;-78
2023/12/17 09:55:27;;;;;;;19.17;13.20;;;;;;;7.30;100.00;103728.34;6126057;23;20069;-77
2023/12/17 09:57:52;;;;;;;22.92;14.55;;;;;;;7.32;100.00;103730.91;6126283;23;20428;-78
2023/12/17 10:00:18;;;;;;;23.70;14.73;;;;;;;7.10;100.00;103676.16;6126360;23;20379;-77
2023/12/17 10:02:44;;;;;;;25.45;16.25;;;;;;;7.19;100.00;103702.69;6126022;23;20507;-76
2023/12/17 10:05:09;;;;;;;24.42;15.27;;;;;;;7.27;100.00;103725.75;6124716;23;20009;-78
2023/12/17 10:07:37;;;;;;;25.05;15.98;;;;;;;7.18;100.00;103706.09;6126645;23;20080;-78
2023/12/17 10:10:03;;;;;;;23.92;15.40;;;;;;;7.27;100.00;103720.63;6126109;23;20009;-78
2023/12/17 10:12:29;;;;;;;26.23;16.45;;;;;;;6.96;100.00;103667.59;6125857;23;20332;-79
2023/12/17 10:14:55;;;;;;;25.92;15.65;;;;;;;7.24;100.00;103719.78;6126237;23;20012;-77
2023/12/17 10:17:20;;;;;;;23.48;16.00;;;;;;;7.21;100.00;103714.66;6125854;23;20484;-77
2023/12/17 10:19:50;;;;;;;25.45;15.70;;;;;;;7.18;100.00;103721.53;6125932;23;20010;-78
2023/12/17 10:22:15;;;;;;;25.60;16.90;;;;;;;7.05;100.00;103711.25;6125688;23;20032;-77
2023/12/17 10:24:41;;;;;;;26.75;16.30;;;;;;;7.17;100.00;103731.78;6125976;23;20077;-77
2023/12/17 10:27:18;;;;;;;24.05;15.45;;;;;;;7.03;100.00;103710.41;6125752;23;20017;-77
2023/12/17 10:29:47;;;;;;;24.90;15.85;;;;;;;7.15;100.00;103726.66;6125708;23;20040;-79
2023/12/17 10:32:13;;;;;;;27.20;17.23;;;;;;;7.16;100.00;103722.38;6125561;23;20006;-72
2023/12/17 10:34:40;;;;;;;27.05;17.20;;;;;;;7.03;100.00;103711.28;6125514;23;20454;-71
2023/12/17 10:37:06;;;;;;;27.95;17.83;;;;;;;7.09;100.00;103721.53;6125768;23;20010;-74
2023/12/17 10:39:33;;;;;;;29.25;18.60;;;;;;;7.13;100.00;103719.81;6125432;23;20420;-74
2023/12/17 10:42:01;;;;;;;29.27;19.20;;;;;;;7.10;100.00;103719.84;6126108;23;20010;-79
2023/12/17 10:44:28;;;;;;;33.25;19.50;;;;;;;7.12;100.00;103716.38;6126096;23;20002;-78
2023/12/17 10:46:54;;;;;;;31.42;18.90;;;;;;;7.16;100.00;103717.22;6125951;23;20002;-77
2023/12/17 10:49:20;;;;;;;31.77;19.90;;;;;;;7.20;100.00;103708.66;6125494;23;20012;-78
2023/12/17 10:51:48;;;;;;;30.50;19.38;;;;;;;7.24;100.00;103704.38;6125869;23;20057;-76
2023/12/17 10:54:13;;;;;;;33.38;19.48;;;;;;;7.19;100.00;103688.97;6125071;23;20006;-76
2023/12/17 10:56:44;;;;;;;32.53;19.70;;;;;;;7.31;100.00;103706.06;6125452;23;20002;-77
2023/12/17 10:59:13;;;;;;;34.55;19.58;;;;;;;7.37;100.00;103695.75;6125689;23;20002;-75
2023/12/17 11:01:41;;;;;;;28.80;19.15;;;;;;;7.45;100.00;103700.00;6124947;23;20009;-77